Portada
METAR-TAF:

METAR-TAF

Aeroports :

Fairbanks, Alaska, Estats Units d'Amèrica

latitud: 64-48-14N, longitud: 147-52-34W, altitud: 132 m

Observació

L'informe es va fer fa 14 minuts, a les 08:53 UTC
Vent calma
Temperatura -3°C
Humitat 68%
Pressió 1027 hPa
Visibilitat: 16.1 km
Cel ennuvolat a una alçada de 5000 ft

METAR: PAFA 150853Z 00000KT 10SM BKN050 M03/M08 A3033 RMK AO2 SLP281 T10331078 400061067 53010 $

Hora: 01:07 (09:07 UTC)

Pronòstic

L'informe es va fer fa 3 hores i 47 minuts, a les 05:20 UTC
Pronòstic vàlid del 15 a les 06 UTC al 16 a les 12 UTC
Vent 4 kt amb direcció variable
Visibilitat: 10 km
Cel ennuvolat a una alçada de 5000 ft
Cel ennuvolat a una alçada de 10000 ft

TAF: PAFA 150520Z 1506/1612 VRB04KT P6SM BKN050 BKN100

Observacions i pronòstics meteorològics de més de 4000 aeroports (METAR i TAF).

Les estacions disponibles són els punts grocs i vermells al mapa.

Posi el ratolí al punt desitjat per veure el nom de l'estació.

Feu clic per veure les observacions i els pronòstics meteorològics.

Per canviar el mapa: feu clic els botons verds amb una creu de color negre per apropar; al botó verd amb un guió per allunyar la imatge; o en les fletxes verdes per a mapes adjacents.


METAR-TAF: